sensor_id;sensor_type;location;lat;lon;timestamp;P1;durP1;ratioP1;P2;durP2;ratioP2
69594;SDS011;56800;52.142;5.364;2023-03-01T00:00:06;13.35;;;7.60;;
69594;SDS011;56800;52.142;5.364;2023-03-01T00:02:34;11.60;;;7.20;;
69594;SDS011;56800;52.142;5.364;2023-03-01T00:05:01;13.05;;;8.13;;
69594;SDS011;56800;52.142;5.364;2023-03-01T00:07:28;13.25;;;7.38;;
69594;SDS011;56800;52.142;5.364;2023-03-01T00:09:54;12.97;;;6.73;;
69594;SDS011;56800;52.142;5.364;2023-03-01T00:12:21;14.43;;;7.45;;
69594;SDS011;56800;52.142;5.364;2023-03-01T00:14:48;14.85;;;7.72;;
69594;SDS011;56800;52.142;5.364;2023-03-01T00:17:14;11.80;;;7.05;;
69594;SDS011;56800;52.142;5.364;2023-03-01T00:19:41;14.93;;;7.80;;
69594;SDS011;56800;52.142;5.364;2023-03-01T00:22:08;14.25;;;8.07;;
69594;SDS011;56800;52.142;5.364;2023-03-01T00:24:34;14.68;;;8.10;;
69594;SDS011;56800;52.142;5.364;2023-03-01T00:27:01;11.10;;;7.53;;
69594;SDS011;56800;52.142;5.364;2023-03-01T00:29:27;19.23;;;7.95;;
69594;SDS011;56800;52.142;5.364;2023-03-01T00:31:54;15.30;;;7.90;;
69594;SDS011;56800;52.142;5.364;2023-03-01T00:34:21;16.15;;;7.38;;
69594;SDS011;56800;52.142;5.364;2023-03-01T00:36:47;16.20;;;7.28;;
69594;SDS011;56800;52.142;5.364;2023-03-01T00:39:14;11.38;;;7.30;;
69594;SDS011;56800;52.142;5.364;2023-03-01T00:41:41;11.77;;;7.03;;
69594;SDS011;56800;52.142;5.364;2023-03-01T00:44:09;11.47;;;7.57;;
69594;SDS011;56800;52.142;5.364;2023-03-01T00:46:36;14.50;;;8.35;;
69594;SDS011;56800;52.142;5.364;2023-03-01T00:49:03;8.88;;;6.63;;
69594;SDS011;56800;52.142;5.364;2023-03-01T00:51:30;11.88;;;7.45;;
69594;SDS011;56800;52.142;5.364;2023-03-01T00:54:00;17.57;;;7.63;;
69594;SDS011;56800;52.142;5.364;2023-03-01T00:56:28;13.32;;;7.40;;
69594;SDS011;56800;52.142;5.364;2023-03-01T00:58:56;13.30;;;7.95;;
69594;SDS011;56800;52.142;5.364;2023-03-01T01:01:25;12.80;;;8.13;;
69594;SDS011;56800;52.142;5.364;2023-03-01T01:03:58;14.80;;;7.57;;
69594;SDS011;56800;52.142;5.364;2023-03-01T01:06:39;13.00;;;8.05;;
69594;SDS011;56800;52.142;5.364;2023-03-01T01:09:11;11.52;;;7.88;;
69594;SDS011;56800;52.142;5.364;2023-03-01T01:11:47;14.45;;;8.13;;
69594;SDS011;56800;52.142;5.364;2023-03-01T01:14:16;14.97;;;7.97;;
69594;SDS011;56800;52.142;5.364;2023-03-01T01:16:43;14.75;;;7.75;;
69594;SDS011;56800;52.142;5.364;2023-03-01T01:19:10;13.98;;;8.35;;
69594;SDS011;56800;52.142;5.364;2023-03-01T01:21:37;13.35;;;8.20;;
69594;SDS011;56800;52.142;5.364;2023-03-01T01:24:04;16.38;;;8.32;;
69594;SDS011;56800;52.142;5.364;2023-03-01T01:26:32;14.70;;;8.32;;
69594;SDS011;56800;52.142;5.364;2023-03-01T01:29:00;17.48;;;9.02;;
69594;SDS011;56800;52.142;5.364;2023-03-01T01:31:29;14.32;;;8.00;;
69594;SDS011;56800;52.142;5.364;2023-03-01T01:33:58;12.90;;;7.85;;
69594;SDS011;56800;52.142;5.364;2023-03-01T01:36:26;16.37;;;8.17;;
69594;SDS011;56800;52.142;5.364;2023-03-01T01:38:54;12.77;;;7.60;;
69594;SDS011;56800;52.142;5.364;2023-03-01T01:41:21;14.80;;;7.53;;
69594;SDS011;56800;52.142;5.364;2023-03-01T01:44:09;12.88;;;7.63;;
69594;SDS011;56800;52.142;5.364;2023-03-01T01:46:47;12.30;;;8.43;;
69594;SDS011;56800;52.142;5.364;2023-03-01T01:54:53;13.63;;;7.63;;
69594;SDS011;56800;52.142;5.364;2023-03-01T01:57:25;12.07;;;8.20;;
69594;SDS011;56800;52.142;5.364;2023-03-01T02:00:00;12.40;;;7.75;;
69594;SDS011;56800;52.142;5.364;2023-03-01T02:02:32;13.15;;;8.68;;
69594;SDS011;56800;52.142;5.364;2023-03-01T02:05:01;14.85;;;8.63;;
69594;SDS011;56800;52.142;5.364;2023-03-01T02:07:36;16.07;;;9.10;;
69594;SDS011;56800;52.142;5.364;2023-03-01T02:10:05;15.52;;;9.38;;
69594;SDS011;56800;52.142;5.364;2023-03-01T02:12:32;14.93;;;9.05;;
69594;SDS011;56800;52.142;5.364;2023-03-01T02:15:01;16.13;;;9.55;;
69594;SDS011;56800;52.142;5.364;2023-03-01T02:17:28;15.80;;;9.40;;
69594;SDS011;56800;52.142;5.364;2023-03-01T02:19:59;17.65;;;9.80;;
69594;SDS011;56800;52.142;5.364;2023-03-01T02:22:40;15.15;;;9.38;;
69594;SDS011;56800;52.142;5.364;2023-03-01T02:25:22;18.13;;;9.60;;
69594;SDS011;56800;52.142;5.364;2023-03-01T02:30:42;14.65;;;10.10;;
69594;SDS011;56800;52.142;5.364;2023-03-01T02:33:33;13.55;;;9.05;;
69594;SDS011;56800;52.142;5.364;2023-03-01T02:36:03;17.63;;;9.98;;
69594;SDS011;56800;52.142;5.364;2023-03-01T02:38:34;18.33;;;9.97;;
69594;SDS011;56800;52.142;5.364;2023-03-01T02:41:01;15.70;;;9.75;;
69594;SDS011;56800;52.142;5.364;2023-03-01T02:43:30;15.77;;;9.98;;
69594;SDS011;56800;52.142;5.364;2023-03-01T02:45:59;17.95;;;9.48;;
69594;SDS011;56800;52.142;5.364;2023-03-01T02:48:39;16.00;;;9.63;;
69594;SDS011;56800;52.142;5.364;2023-03-01T02:54:12;15.32;;;10.07;;
69594;SDS011;56800;52.142;5.364;2023-03-01T02:56:52;14.73;;;9.90;;
69594;SDS011;56800;52.142;5.364;2023-03-01T02:59:20;16.63;;;10.73;;
69594;SDS011;56800;52.142;5.364;2023-03-01T03:01:50;19.83;;;10.05;;
69594;SDS011;56800;52.142;5.364;2023-03-01T03:04:18;18.23;;;10.45;;
69594;SDS011;56800;52.142;5.364;2023-03-01T03:06:48;18.27;;;10.60;;
69594;SDS011;56800;52.142;5.364;2023-03-01T03:09:16;17.53;;;10.30;;
69594;SDS011;56800;52.142;5.364;2023-03-01T03:11:43;16.98;;;10.25;;
69594;SDS011;56800;52.142;5.364;2023-03-01T03:14:11;18.45;;;11.07;;
69594;SDS011;56800;52.142;5.364;2023-03-01T03:16:48;17.05;;;11.13;;
69594;SDS011;56800;52.142;5.364;2023-03-01T03:19:16;18.70;;;11.23;;
69594;SDS011;56800;52.142;5.364;2023-03-01T03:21:45;17.65;;;11.23;;
69594;SDS011;56800;52.142;5.364;2023-03-01T03:24:11;22.55;;;11.63;;
69594;SDS011;56800;52.142;5.364;2023-03-01T03:26:38;21.15;;;11.57;;
69594;SDS011;56800;52.142;5.364;2023-03-01T03:29:05;21.43;;;12.03;;
69594;SDS011;56800;52.142;5.364;2023-03-01T03:31:31;19.40;;;11.82;;
69594;SDS011;56800;52.142;5.364;2023-03-01T03:33:58;17.25;;;11.70;;
69594;SDS011;56800;52.142;5.364;2023-03-01T03:36:25;18.58;;;12.00;;
69594;SDS011;56800;52.142;5.364;2023-03-01T03:38:51;20.70;;;11.83;;
69594;SDS011;56800;52.142;5.364;2023-03-01T03:41:18;19.80;;;11.52;;
69594;SDS011;56800;52.142;5.364;2023-03-01T03:43:45;17.42;;;11.95;;
69594;SDS011;56800;52.142;5.364;2023-03-01T03:46:12;18.20;;;11.80;;
69594;SDS011;56800;52.142;5.364;2023-03-01T03:48:42;21.83;;;12.73;;
69594;SDS011;56800;52.142;5.364;2023-03-01T03:51:11;18.90;;;11.45;;
69594;SDS011;56800;52.142;5.364;2023-03-01T03:53:41;20.30;;;12.00;;
69594;SDS011;56800;52.142;5.364;2023-03-01T03:56:09;20.50;;;11.77;;
69594;SDS011;56800;52.142;5.364;2023-03-01T03:58:36;18.57;;;11.70;;
69594;SDS011;56800;52.142;5.364;2023-03-01T04:01:03;18.75;;;10.68;;
69594;SDS011;56800;52.142;5.364;2023-03-01T04:03:30;18.90;;;11.23;;
69594;SDS011;56800;52.142;5.364;2023-03-01T04:05:59;18.92;;;10.82;;
69594;SDS011;56800;52.142;5.364;2023-03-01T04:08:26;19.80;;;11.60;;
69594;SDS011;56800;52.142;5.364;2023-03-01T04:11:00;14.80;;;10.23;;
69594;SDS011;56800;52.142;5.364;2023-03-01T04:13:47;17.58;;;10.50;;
69594;SDS011;56800;52.142;5.364;2023-03-01T04:16:15;17.20;;;10.65;;
69594;SDS011;56800;52.142;5.364;2023-03-01T04:18:42;16.83;;;10.37;;
69594;SDS011;56800;52.142;5.364;2023-03-01T04:21:09;16.02;;;10.40;;
69594;SDS011;56800;52.142;5.364;2023-03-01T04:23:37;20.05;;;11.05;;
69594;SDS011;56800;52.142;5.364;2023-03-01T04:26:05;17.73;;;10.68;;
69594;SDS011;56800;52.142;5.364;2023-03-01T04:31:12;18.98;;;11.98;;
69594;SDS011;56800;52.142;5.364;2023-03-01T04:33:45;22.27;;;11.23;;
69594;SDS011;56800;52.142;5.364;2023-03-01T04:36:26;17.63;;;11.30;;
69594;SDS011;56800;52.142;5.364;2023-03-01T04:38:56;16.50;;;11.20;;
69594;SDS011;56800;52.142;5.364;2023-03-01T04:41:23;20.88;;;11.90;;
69594;SDS011;56800;52.142;5.364;2023-03-01T04:43:51;19.48;;;12.32;;
69594;SDS011;56800;52.142;5.364;2023-03-01T04:46:19;19.40;;;11.82;;
69594;SDS011;56800;52.142;5.364;2023-03-01T04:48:47;22.53;;;12.40;;
69594;SDS011;56800;52.142;5.364;2023-03-01T04:51:14;21.20;;;13.10;;
69594;SDS011;56800;52.142;5.364;2023-03-01T04:53:42;22.10;;;12.38;;
69594;SDS011;56800;52.142;5.364;2023-03-01T04:56:09;22.85;;;13.35;;
69594;SDS011;56800;52.142;5.364;2023-03-01T04:58:36;21.60;;;13.07;;
69594;SDS011;56800;52.142;5.364;2023-03-01T05:01:08;21.75;;;13.07;;
69594;SDS011;56800;52.142;5.364;2023-03-01T05:03:46;19.77;;;11.18;;
69594;SDS011;56800;52.142;5.364;2023-03-01T05:06:15;19.33;;;11.02;;
69594;SDS011;56800;52.142;5.364;2023-03-01T05:08:42;15.23;;;9.93;;
69594;SDS011;56800;52.142;5.364;2023-03-01T05:11:10;16.67;;;9.80;;
69594;SDS011;56800;52.142;5.364;2023-03-01T05:13:37;18.95;;;10.38;;
69594;SDS011;56800;52.142;5.364;2023-03-01T05:16:05;17.95;;;9.98;;
69594;SDS011;56800;52.142;5.364;2023-03-01T05:18:37;16.70;;;10.07;;
69594;SDS011;56800;52.142;5.364;2023-03-01T05:21:08;16.63;;;9.75;;
69594;SDS011;56800;52.142;5.364;2023-03-01T05:23:37;16.10;;;9.48;;
69594;SDS011;56800;52.142;5.364;2023-03-01T05:26:04;14.52;;;8.93;;
69594;SDS011;56800;52.142;5.364;2023-03-01T05:28:36;15.13;;;8.87;;
69594;SDS011;56800;52.142;5.364;2023-03-01T05:31:03;12.90;;;8.30;;
69594;SDS011;56800;52.142;5.364;2023-03-01T05:33:39;11.95;;;7.95;;
69594;SDS011;56800;52.142;5.364;2023-03-01T05:36:07;12.93;;;8.30;;
69594;SDS011;56800;52.142;5.364;2023-03-01T05:38:35;17.50;;;7.90;;
69594;SDS011;56800;52.142;5.364;2023-03-01T05:41:02;14.45;;;8.02;;
69594;SDS011;56800;52.142;5.364;2023-03-01T05:43:32;12.27;;;7.53;;
69594;SDS011;56800;52.142;5.364;2023-03-01T05:46:01;13.20;;;7.72;;
69594;SDS011;56800;52.142;5.364;2023-03-01T05:48:28;11.83;;;7.13;;
69594;SDS011;56800;52.142;5.364;2023-03-01T05:50:58;12.65;;;7.22;;
69594;SDS011;56800;52.142;5.364;2023-03-01T05:53:26;12.25;;;7.38;;
69594;SDS011;56800;52.142;5.364;2023-03-01T05:55:52;13.45;;;7.60;;
69594;SDS011;56800;52.142;5.364;2023-03-01T05:58:19;14.07;;;7.97;;
69594;SDS011;56800;52.142;5.364;2023-03-01T06:00:47;11.70;;;7.40;;
69594;SDS011;56800;52.142;5.364;2023-03-01T06:03:15;14.07;;;7.25;;
69594;SDS011;56800;52.142;5.364;2023-03-01T06:05:43;11.57;;;7.28;;
69594;SDS011;56800;52.142;5.364;2023-03-01T06:08:10;17.67;;;7.90;;
69594;SDS011;56800;52.142;5.364;2023-03-01T06:10:38;14.68;;;7.32;;
69594;SDS011;56800;52.142;5.364;2023-03-01T06:13:05;15.15;;;7.97;;
69594;SDS011;56800;52.142;5.364;2023-03-01T06:15:31;13.43;;;8.13;;
69594;SDS011;56800;52.142;5.364;2023-03-01T06:17:58;14.73;;;8.70;;
69594;SDS011;56800;52.142;5.364;2023-03-01T06:20:26;16.70;;;8.35;;
69594;SDS011;56800;52.142;5.364;2023-03-01T06:22:54;16.00;;;9.27;;
69594;SDS011;56800;52.142;5.364;2023-03-01T06:25:21;16.58;;;8.38;;
69594;SDS011;56800;52.142;5.364;2023-03-01T06:27:49;15.83;;;8.80;;
69594;SDS011;56800;52.142;5.364;2023-03-01T06:30:18;13.77;;;8.60;;
69594;SDS011;56800;52.142;5.364;2023-03-01T06:32:46;13.13;;;8.15;;
69594;SDS011;56800;52.142;5.364;2023-03-01T06:35:14;13.48;;;8.00;;
69594;SDS011;56800;52.142;5.364;2023-03-01T06:37:43;18.53;;;8.60;;
69594;SDS011;56800;52.142;5.364;2023-03-01T06:40:11;13.88;;;8.73;;
69594;SDS011;56800;52.142;5.364;2023-03-01T06:42:40;14.63;;;8.05;;
69594;SDS011;56800;52.142;5.364;2023-03-01T06:45:08;16.58;;;9.50;;
69594;SDS011;56800;52.142;5.364;2023-03-01T06:47:35;16.37;;;9.47;;
69594;SDS011;56800;52.142;5.364;2023-03-01T06:50:02;17.48;;;9.40;;
69594;SDS011;56800;52.142;5.364;2023-03-01T06:52:29;15.55;;;9.65;;
69594;SDS011;56800;52.142;5.364;2023-03-01T06:54:56;14.40;;;8.70;;
69594;SDS011;56800;52.142;5.364;2023-03-01T06:57:23;14.88;;;9.07;;
69594;SDS011;56800;52.142;5.364;2023-03-01T06:59:50;13.18;;;8.40;;
69594;SDS011;56800;52.142;5.364;2023-03-01T07:02:16;14.10;;;8.85;;
69594;SDS011;56800;52.142;5.364;2023-03-01T07:04:43;16.53;;;9.70;;
69594;SDS011;56800;52.142;5.364;2023-03-01T07:07:10;16.52;;;9.63;;
69594;SDS011;56800;52.142;5.364;2023-03-01T07:09:37;17.33;;;9.27;;
69594;SDS011;56800;52.142;5.364;2023-03-01T07:12:03;16.67;;;9.57;;
69594;SDS011;56800;52.142;5.364;2023-03-01T07:14:30;15.77;;;10.23;;
69594;SDS011;56800;52.142;5.364;2023-03-01T07:16:57;15.65;;;9.77;;
69594;SDS011;56800;52.142;5.364;2023-03-01T07:19:24;18.30;;;9.77;;
69594;SDS011;56800;52.142;5.364;2023-03-01T07:21:51;18.88;;;10.68;;
69594;SDS011;56800;52.142;5.364;2023-03-01T07:24:17;19.87;;;10.77;;
69594;SDS011;56800;52.142;5.364;2023-03-01T07:26:44;24.65;;;11.68;;
69594;SDS011;56800;52.142;5.364;2023-03-01T07:29:15;22.33;;;12.48;;
69594;SDS011;56800;52.142;5.364;2023-03-01T07:31:42;22.13;;;12.30;;
69594;SDS011;56800;52.142;5.364;2023-03-01T07:34:09;20.57;;;12.33;;
69594;SDS011;56800;52.142;5.364;2023-03-01T07:36:37;22.45;;;12.20;;
69594;SDS011;56800;52.142;5.364;2023-03-01T07:39:03;30.00;;;12.95;;
69594;SDS011;56800;52.142;5.364;2023-03-01T07:41:30;23.40;;;13.30;;
69594;SDS011;56800;52.142;5.364;2023-03-01T07:43:57;22.70;;;13.27;;
69594;SDS011;56800;52.142;5.364;2023-03-01T07:46:23;24.55;;;12.65;;
69594;SDS011;56800;52.142;5.364;2023-03-01T07:48:50;18.77;;;12.77;;
69594;SDS011;56800;52.142;5.364;2023-03-01T07:51:17;23.42;;;13.55;;
69594;SDS011;56800;52.142;5.364;2023-03-01T07:53:46;23.13;;;13.70;;
69594;SDS011;56800;52.142;5.364;2023-03-01T07:56:14;24.73;;;13.70;;
69594;SDS011;56800;52.142;5.364;2023-03-01T07:58:43;24.75;;;13.80;;
69594;SDS011;56800;52.142;5.364;2023-03-01T08:01:12;23.40;;;13.63;;
69594;SDS011;56800;52.142;5.364;2023-03-01T08:03:40;25.27;;;14.07;;
69594;SDS011;56800;52.142;5.364;2023-03-01T08:06:08;22.15;;;11.85;;
69594;SDS011;56800;52.142;5.364;2023-03-01T08:08:36;21.52;;;12.80;;
69594;SDS011;56800;52.142;5.364;2023-03-01T08:11:04;24.63;;;12.65;;
69594;SDS011;56800;52.142;5.364;2023-03-01T08:13:32;22.98;;;12.35;;
69594;SDS011;56800;52.142;5.364;2023-03-01T08:16:03;20.47;;;12.37;;
69594;SDS011;56800;52.142;5.364;2023-03-01T08:18:32;20.90;;;12.07;;
69594;SDS011;56800;52.142;5.364;2023-03-01T08:21:08;18.45;;;11.57;;
69594;SDS011;56800;52.142;5.364;2023-03-01T08:23:37;20.00;;;10.57;;
69594;SDS011;56800;52.142;5.364;2023-03-01T08:26:05;21.67;;;11.93;;
69594;SDS011;56800;52.142;5.364;2023-03-01T08:28:36;19.87;;;10.80;;
69594;SDS011;56800;52.142;5.364;2023-03-01T08:31:12;13.98;;;8.18;;
69594;SDS011;56800;52.142;5.364;2023-03-01T08:33:48;16.27;;;10.27;;
69594;SDS011;56800;52.142;5.364;2023-03-01T08:36:23;13.63;;;8.23;;
69594;SDS011;56800;52.142;5.364;2023-03-01T08:38:51;14.00;;;7.78;;
69594;SDS011;56800;52.142;5.364;2023-03-01T08:41:18;17.23;;;8.17;;
69594;SDS011;56800;52.142;5.364;2023-03-01T08:43:45;14.82;;;8.40;;
69594;SDS011;56800;52.142;5.364;2023-03-01T08:46:12;13.15;;;8.00;;
69594;SDS011;56800;52.142;5.364;2023-03-01T08:48:40;12.27;;;7.65;;
69594;SDS011;56800;52.142;5.364;2023-03-01T08:53:43;10.03;;;6.90;;
69594;SDS011;56800;52.142;5.364;2023-03-01T08:56:10;13.50;;;7.72;;
69594;SDS011;56800;52.142;5.364;2023-03-01T08:58:37;11.40;;;7.95;;
69594;SDS011;56800;52.142;5.364;2023-03-01T09:01:09;12.65;;;6.68;;
69594;SDS011;56800;52.142;5.364;2023-03-01T09:03:37;11.07;;;6.63;;
69594;SDS011;56800;52.142;5.364;2023-03-01T09:06:04;11.70;;;6.70;;
69594;SDS011;56800;52.142;5.364;2023-03-01T09:08:37;11.38;;;7.03;;
69594;SDS011;56800;52.142;5.364;2023-03-01T09:11:06;8.93;;;6.07;;
69594;SDS011;56800;52.142;5.364;2023-03-01T09:13:34;10.18;;;5.97;;
69594;SDS011;56800;52.142;5.364;2023-03-01T09:16:01;9.48;;;6.25;;
69594;SDS011;56800;52.142;5.364;2023-03-01T09:18:29;9.27;;;5.80;;
69594;SDS011;56800;52.142;5.364;2023-03-01T09:21:03;8.63;;;5.28;;
69594;SDS011;56800;52.142;5.364;2023-03-01T09:23:34;8.80;;;5.40;;
69594;SDS011;56800;52.142;5.364;2023-03-01T09:26:02;7.93;;;5.43;;
69594;SDS011;56800;52.142;5.364;2023-03-01T09:28:29;8.40;;;5.15;;
69594;SDS011;56800;52.142;5.364;2023-03-01T09:30:59;7.20;;;4.73;;
69594;SDS011;56800;52.142;5.364;2023-03-01T09:33:28;10.20;;;4.70;;
69594;SDS011;56800;52.142;5.364;2023-03-01T09:35:59;8.77;;;4.82;;
69594;SDS011;56800;52.142;5.364;2023-03-01T09:38:27;6.95;;;4.40;;
69594;SDS011;56800;52.142;5.364;2023-03-01T09:40:54;6.75;;;4.57;;
69594;SDS011;56800;52.142;5.364;2023-03-01T09:43:24;8.17;;;4.73;;
69594;SDS011;56800;52.142;5.364;2023-03-01T09:45:52;8.35;;;4.65;;
69594;SDS011;56800;52.142;5.364;2023-03-01T09:48:23;6.70;;;4.35;;
69594;SDS011;56800;52.142;5.364;2023-03-01T09:50:52;6.32;;;4.63;;
69594;SDS011;56800;52.142;5.364;2023-03-01T09:53:23;8.18;;;4.85;;
69594;SDS011;56800;52.142;5.364;2023-03-01T09:58:57;8.75;;;4.63;;
69594;SDS011;56800;52.142;5.364;2023-03-01T10:07:15;7.15;;;4.93;;
69594;SDS011;56800;52.142;5.364;2023-03-01T10:10:02;5.67;;;3.67;;
69594;SDS011;56800;52.142;5.364;2023-03-01T10:12:37;6.45;;;3.45;;
69594;SDS011;56800;52.142;5.364;2023-03-01T10:17:50;6.97;;;3.85;;
69594;SDS011;56800;52.142;5.364;2023-03-01T10:20:35;6.60;;;3.40;;
69594;SDS011;56800;52.142;5.364;2023-03-01T10:23:09;5.00;;;3.47;;
69594;SDS011;56800;52.142;5.364;2023-03-01T10:31:47;5.65;;;3.80;;
69594;SDS011;56800;52.142;5.364;2023-03-01T10:34:16;8.73;;;3.65;;
69594;SDS011;56800;52.142;5.364;2023-03-01T10:36:47;6.40;;;3.70;;
69594;SDS011;56800;52.142;5.364;2023-03-01T10:39:20;5.78;;;3.60;;
69594;SDS011;56800;52.142;5.364;2023-03-01T10:41:52;6.55;;;4.05;;
69594;SDS011;56800;52.142;5.364;2023-03-01T10:52:25;6.43;;;3.70;;
69594;SDS011;56800;52.142;5.364;2023-03-01T10:54:55;6.18;;;3.60;;
69594;SDS011;56800;52.142;5.364;2023-03-01T10:57:34;5.43;;;3.20;;
69594;SDS011;56800;52.142;5.364;2023-03-01T11:00:20;6.28;;;3.30;;
69594;SDS011;56800;52.142;5.364;2023-03-01T11:02:50;5.70;;;3.47;;
69594;SDS011;56800;52.142;5.364;2023-03-01T11:05:27;6.53;;;3.20;;
69594;SDS011;56800;52.142;5.364;2023-03-01T11:07:57;4.90;;;3.00;;
69594;SDS011;56800;52.142;5.364;2023-03-01T11:10:29;7.25;;;2.97;;
69594;SDS011;56800;52.142;5.364;2023-03-01T11:13:06;4.85;;;2.72;;
69594;SDS011;56800;52.142;5.364;2023-03-01T11:15:34;7.37;;;2.67;;
69594;SDS011;56800;52.142;5.364;2023-03-01T11:18:01;6.13;;;3.03;;
69594;SDS011;56800;52.142;5.364;2023-03-01T11:20:39;3.72;;;2.30;;
69594;SDS011;56800;52.142;5.364;2023-03-01T11:23:10;6.18;;;2.63;;
69594;SDS011;56800;52.142;5.364;2023-03-01T11:25:40;5.47;;;2.88;;
69594;SDS011;56800;52.142;5.364;2023-03-01T11:28:12;7.43;;;3.67;;
69594;SDS011;56800;52.142;5.364;2023-03-01T11:30:54;5.32;;;2.95;;
69594;SDS011;56800;52.142;5.364;2023-03-01T11:33:48;4.90;;;2.83;;
69594;SDS011;56800;52.142;5.364;2023-03-01T11:36:30;4.43;;;2.70;;
69594;SDS011;56800;52.142;5.364;2023-03-01T11:39:03;5.57;;;2.65;;
69594;SDS011;56800;52.142;5.364;2023-03-01T11:41:50;5.10;;;2.60;;
69594;SDS011;56800;52.142;5.364;2023-03-01T11:44:38;5.07;;;2.88;;
69594;SDS011;56800;52.142;5.364;2023-03-01T11:47:13;6.57;;;2.67;;
69594;SDS011;56800;52.142;5.364;2023-03-01T11:50:05;6.07;;;2.60;;
69594;SDS011;56800;52.142;5.364;2023-03-01T11:55:51;4.33;;;2.60;;
69594;SDS011;56800;52.142;5.364;2023-03-01T11:58:32;5.40;;;2.75;;
69594;SDS011;56800;52.142;5.364;2023-03-01T12:04:27;4.60;;;2.70;;
69594;SDS011;56800;52.142;5.364;2023-03-01T12:07:01;5.53;;;3.08;;
69594;SDS011;56800;52.142;5.364;2023-03-01T12:12:25;5.65;;;2.92;;
69594;SDS011;56800;52.142;5.364;2023-03-01T12:17:57;6.35;;;3.20;;
69594;SDS011;56800;52.142;5.364;2023-03-01T12:20:47;5.35;;;3.10;;
69594;SDS011;56800;52.142;5.364;2023-03-01T12:23:25;5.37;;;3.13;;
69594;SDS011;56800;52.142;5.364;2023-03-01T12:26:43;6.53;;;3.30;;
69594;SDS011;56800;52.142;5.364;2023-03-01T12:29:40;5.35;;;3.33;;
69594;SDS011;56800;52.142;5.364;2023-03-01T12:37:54;5.40;;;3.10;;
69594;SDS011;56800;52.142;5.364;2023-03-01T12:43:15;6.45;;;3.42;;
69594;SDS011;56800;52.142;5.364;2023-03-01T12:45:57;5.82;;;3.90;;
69594;SDS011;56800;52.142;5.364;2023-03-01T12:51:31;5.10;;;3.50;;
69594;SDS011;56800;52.142;5.364;2023-03-01T12:54:02;7.05;;;3.38;;
69594;SDS011;56800;52.142;5.364;2023-03-01T12:56:37;5.50;;;3.30;;
69594;SDS011;56800;52.142;5.364;2023-03-01T13:04:27;5.93;;;3.43;;
69594;SDS011;56800;52.142;5.364;2023-03-01T13:07:43;7.97;;;3.30;;
69594;SDS011;56800;52.142;5.364;2023-03-01T13:10:24;5.78;;;3.20;;
69594;SDS011;56800;52.142;5.364;2023-03-01T13:17:51;7.70;;;3.70;;
69594;SDS011;56800;52.142;5.364;2023-03-01T13:20:23;7.75;;;3.45;;
69594;SDS011;56800;52.142;5.364;2023-03-01T13:23:04;6.10;;;3.75;;
69594;SDS011;56800;52.142;5.364;2023-03-01T13:28:38;5.32;;;3.40;;
69594;SDS011;56800;52.142;5.364;2023-03-01T13:33:42;6.88;;;3.40;;
69594;SDS011;56800;52.142;5.364;2023-03-01T13:38:59;6.28;;;3.40;;
69594;SDS011;56800;52.142;5.364;2023-03-01T13:44:12;5.07;;;3.03;;
69594;SDS011;56800;52.142;5.364;2023-03-01T13:46:50;5.32;;;3.20;;
69594;SDS011;56800;52.142;5.364;2023-03-01T13:49:41;6.15;;;3.60;;
69594;SDS011;56800;52.142;5.364;2023-03-01T13:55:03;7.38;;;3.63;;
69594;SDS011;56800;52.142;5.364;2023-03-01T13:57:33;6.87;;;4.03;;
69594;SDS011;56800;52.142;5.364;2023-03-01T14:00:02;9.30;;;3.97;;
69594;SDS011;56800;52.142;5.364;2023-03-01T14:02:31;12.25;;;3.28;;
69594;SDS011;56800;52.142;5.364;2023-03-01T14:04:58;7.07;;;3.63;;
69594;SDS011;56800;52.142;5.364;2023-03-01T14:07:26;7.15;;;4.15;;
69594;SDS011;56800;52.142;5.364;2023-03-01T14:10:01;6.63;;;3.83;;
69594;SDS011;56800;52.142;5.364;2023-03-01T14:12:43;5.13;;;3.60;;
69594;SDS011;56800;52.142;5.364;2023-03-01T14:15:19;6.55;;;4.10;;
69594;SDS011;56800;52.142;5.364;2023-03-01T14:18:14;7.47;;;3.67;;
69594;SDS011;56800;52.142;5.364;2023-03-01T14:20:46;7.05;;;3.30;;
69594;SDS011;56800;52.142;5.364;2023-03-01T14:23:18;7.30;;;3.70;;
69594;SDS011;56800;52.142;5.364;2023-03-01T14:25:50;6.40;;;3.55;;
69594;SDS011;56800;52.142;5.364;2023-03-01T14:28:20;6.05;;;3.70;;
69594;SDS011;56800;52.142;5.364;2023-03-01T14:30:51;7.28;;;3.42;;
69594;SDS011;56800;52.142;5.364;2023-03-01T14:33:22;5.00;;;3.20;;
69594;SDS011;56800;52.142;5.364;2023-03-01T14:35:56;6.10;;;3.43;;
69594;SDS011;56800;52.142;5.364;2023-03-01T14:38:37;8.18;;;3.20;;
69594;SDS011;56800;52.142;5.364;2023-03-01T14:41:13;8.60;;;3.35;;
69594;SDS011;56800;52.142;5.364;2023-03-01T14:43:45;4.97;;;3.45;;
69594;SDS011;56800;52.142;5.364;2023-03-01T14:46:26;7.63;;;4.00;;
69594;SDS011;56800;52.142;5.364;2023-03-01T14:49:04;7.77;;;3.37;;
69594;SDS011;56800;52.142;5.364;2023-03-01T14:52:34;8.55;;;3.65;;
69594;SDS011;56800;52.142;5.364;2023-03-01T14:54:48;6.57;;;3.40;;
69594;SDS011;56800;52.142;5.364;2023-03-01T14:57:26;7.30;;;3.60;;
69594;SDS011;56800;52.142;5.364;2023-03-01T14:59:54;6.78;;;3.50;;
69594;SDS011;56800;52.142;5.364;2023-03-01T15:02:24;5.23;;;3.37;;
69594;SDS011;56800;52.142;5.364;2023-03-01T15:04:54;5.85;;;3.22;;
69594;SDS011;56800;52.142;5.364;2023-03-01T15:07:27;6.15;;;3.22;;
69594;SDS011;56800;52.142;5.364;2023-03-01T15:09:58;6.60;;;3.47;;
69594;SDS011;56800;52.142;5.364;2023-03-01T15:14:55;5.87;;;3.00;;
69594;SDS011;56800;52.142;5.364;2023-03-01T15:17:33;5.72;;;3.45;;
69594;SDS011;56800;52.142;5.364;2023-03-01T15:20:03;6.38;;;3.50;;
69594;SDS011;56800;52.142;5.364;2023-03-01T15:22:45;6.80;;;3.33;;
69594;SDS011;56800;52.142;5.364;2023-03-01T15:25:16;7.75;;;3.50;;
69594;SDS011;56800;52.142;5.364;2023-03-01T15:27:45;5.10;;;3.13;;
69594;SDS011;56800;52.142;5.364;2023-03-01T15:30:17;7.30;;;2.95;;
69594;SDS011;56800;52.142;5.364;2023-03-01T15:35:48;5.13;;;3.10;;
69594;SDS011;56800;52.142;5.364;2023-03-01T15:38:24;12.13;;;3.60;;
69594;SDS011;56800;52.142;5.364;2023-03-01T15:40:55;8.43;;;3.37;;
69594;SDS011;56800;52.142;5.364;2023-03-01T15:43:37;6.32;;;3.15;;
69594;SDS011;56800;52.142;5.364;2023-03-01T15:46:28;6.75;;;3.47;;
69594;SDS011;56800;52.142;5.364;2023-03-01T15:48:59;7.35;;;3.80;;
69594;SDS011;56800;52.142;5.364;2023-03-01T15:51:30;6.32;;;3.30;;
69594;SDS011;56800;52.142;5.364;2023-03-01T15:54:05;7.30;;;3.60;;
69594;SDS011;56800;52.142;5.364;2023-03-01T15:56:39;7.57;;;3.35;;
69594;SDS011;56800;52.142;5.364;2023-03-01T15:59:06;8.52;;;3.58;;
69594;SDS011;56800;52.142;5.364;2023-03-01T16:01:37;7.40;;;3.25;;
69594;SDS011;56800;52.142;5.364;2023-03-01T16:04:04;5.05;;;3.47;;
69594;SDS011;56800;52.142;5.364;2023-03-01T16:06:31;7.57;;;3.90;;
69594;SDS011;56800;52.142;5.364;2023-03-01T16:08:58;6.38;;;3.60;;
69594;SDS011;56800;52.142;5.364;2023-03-01T16:11:25;7.00;;;3.58;;
69594;SDS011;56800;52.142;5.364;2023-03-01T16:13:52;5.57;;;3.40;;
69594;SDS011;56800;52.142;5.364;2023-03-01T16:16:18;6.30;;;4.03;;
69594;SDS011;56800;52.142;5.364;2023-03-01T16:18:46;6.90;;;3.50;;
69594;SDS011;56800;52.142;5.364;2023-03-01T16:21:21;7.28;;;3.45;;
69594;SDS011;56800;52.142;5.364;2023-03-01T16:23:51;6.60;;;4.00;;
69594;SDS011;56800;52.142;5.364;2023-03-01T16:26:18;6.03;;;3.50;;
69594;SDS011;56800;52.142;5.364;2023-03-01T16:28:46;7.97;;;3.80;;
69594;SDS011;56800;52.142;5.364;2023-03-01T16:31:16;6.20;;;3.97;;
69594;SDS011;56800;52.142;5.364;2023-03-01T16:33:45;7.00;;;3.50;;